createdAt,value
2019-02-27T00:01:19.707Z,6.50
2019-02-27T00:03:49.262Z,6.67
2019-02-27T00:06:18.510Z,6.00
2019-02-27T00:09:03.055Z,6.70
2019-02-27T00:11:33.717Z,6.30
2019-02-27T00:14:05.527Z,14.20
2019-02-27T00:16:34.793Z,17.93
2019-02-27T00:19:06.430Z,22.93
2019-02-27T00:21:35.697Z,23.00
2019-02-27T00:24:04.925Z,15.47
2019-02-27T00:26:36.371Z,15.57
2019-02-27T00:29:07.031Z,12.80
2019-02-27T00:31:36.569Z,12.50
2019-02-27T00:34:05.799Z,13.80
2019-02-27T00:36:44.835Z,12.97
2019-02-27T00:39:12.066Z,8.67
2019-02-27T00:41:43.092Z,6.17
2019-02-27T00:44:19.380Z,9.17
2019-02-27T00:46:50.413Z,6.70
2019-02-27T00:49:19.815Z,6.93
2019-02-27T00:51:50.108Z,7.43
2019-02-27T00:54:23.523Z,6.53
2019-02-27T00:56:55.540Z,7.17
2019-02-27T00:59:27.293Z,6.50
2019-02-27T01:01:56.580Z,5.87
2019-02-27T01:04:28.643Z,6.50
2019-02-27T01:06:59.977Z,6.90
2019-02-27T01:09:29.206Z,5.57
2019-02-27T01:11:58.744Z,6.30
2019-02-27T01:14:27.972Z,6.83
2019-02-27T01:16:57.338Z,6.27
2019-02-27T01:19:26.889Z,6.47
2019-02-27T01:21:58.332Z,6.80
2019-02-27T01:24:31.426Z,6.60
2019-02-27T01:27:05.765Z,7.00
2019-02-27T01:29:34.982Z,6.70
2019-02-27T01:32:06.298Z,6.70
2019-02-27T01:34:35.526Z,7.47
2019-02-27T01:37:07.447Z,6.50
2019-02-27T01:39:37.830Z,8.23
2019-02-27T01:42:09.114Z,7.57
2019-02-27T01:44:43.960Z,7.10
2019-02-27T01:47:14.174Z,7.07
2019-02-27T01:49:43.421Z,6.53
2019-02-27T01:52:14.312Z,7.07
2019-02-27T01:54:46.103Z,6.70
2019-02-27T01:57:18.675Z,6.83
2019-02-27T01:59:50.273Z,6.27
2019-02-27T02:02:20.608Z,6.43
2019-02-27T02:04:52.919Z,6.67
2019-02-27T02:07:21.448Z,6.50
2019-02-27T02:09:55.096Z,6.87
2019-02-27T02:12:31.598Z,6.73
2019-02-27T02:15:37.131Z,6.80
2019-02-27T02:19:05.978Z,7.50
2019-02-27T02:22:18.475Z,6.97
2019-02-27T02:25:36.432Z,6.83
2019-02-27T02:28:33.638Z,7.80
2019-02-27T02:31:34.097Z,7.63
2019-02-27T02:34:40.912Z,6.20
2019-02-27T02:37:47.934Z,6.27
2019-02-27T02:41:28.926Z,6.83
2019-02-27T02:44:57.236Z,6.17
2019-02-27T02:47:58.398Z,6.37
2019-02-27T02:51:12.464Z,6.50
2019-02-27T02:54:20.143Z,6.37
2019-02-27T02:57:37.076Z,7.00
2019-02-27T03:00:37.919Z,6.90
2019-02-27T03:03:37.041Z,7.43
2019-02-27T03:06:35.095Z,6.83
2019-02-27T03:09:35.736Z,7.80
2019-02-27T03:12:31.211Z,8.00
2019-02-27T03:15:56.861Z,8.10
2019-02-27T03:18:53.940Z,7.17
2019-02-27T03:22:13.330Z,7.63
2019-02-27T03:25:19.327Z,7.13
2019-02-27T03:28:40.540Z,6.93
2019-02-27T03:31:57.846Z,7.00
2019-02-27T03:35:01.369Z,6.93
2019-02-27T03:37:49.490Z,6.90
2019-02-27T03:41:10.659Z,6.70
2019-02-27T03:44:21.872Z,6.60
2019-02-27T03:47:16.782Z,6.60
2019-02-27T03:50:27.197Z,6.87
2019-02-27T03:53:47.969Z,6.73
2019-02-27T03:56:53.478Z,7.00
2019-02-27T03:59:58.823Z,6.53
2019-02-27T04:02:52.843Z,6.90
2019-02-27T04:05:56.118Z,6.83
2019-02-27T04:09:00.388Z,6.60
2019-02-27T04:11:31.776Z,7.50
2019-02-27T04:14:05.547Z,6.90
2019-02-27T04:16:37.892Z,8.57
2019-02-27T04:19:06.269Z,6.93
2019-02-27T04:21:35.511Z,7.73
2019-02-27T04:24:05.488Z,8.80
2019-02-27T04:26:35.119Z,7.40
2019-02-27T04:29:07.598Z,8.03
2019-02-27T04:31:39.770Z,8.87
2019-02-27T04:34:10.729Z,9.23
2019-02-27T04:36:39.972Z,9.47
2019-02-27T04:39:10.188Z,10.47
2019-02-27T04:41:45.013Z,10.87
2019-02-27T04:44:14.247Z,10.27
2019-02-27T04:46:46.508Z,10.03
2019-02-27T04:49:16.771Z,9.13
2019-02-27T04:51:48.085Z,9.33
2019-02-27T04:54:16.986Z,8.33
2019-02-27T04:56:47.437Z,9.97
2019-02-27T04:59:20.317Z,7.50
2019-02-27T05:01:53.728Z,7.60
2019-02-27T05:04:27.028Z,7.17
2019-02-27T05:06:56.651Z,6.57
2019-02-27T05:09:26.952Z,6.23
2019-02-27T05:11:56.185Z,7.07
2019-02-27T05:14:27.374Z,7.33
2019-02-27T05:16:57.114Z,6.80
2019-02-27T05:19:26.337Z,7.27
2019-02-27T05:21:55.566Z,6.93
2019-02-27T05:24:27.967Z,6.60
2019-02-27T05:27:06.401Z,8.00
2019-02-27T05:29:37.542Z,6.83
2019-02-27T05:32:06.962Z,7.43
2019-02-27T05:34:40.066Z,7.40
2019-02-27T05:37:09.313Z,7.13
2019-02-27T05:39:38.532Z,7.30
2019-02-27T05:42:13.147Z,7.50
2019-02-27T05:44:43.313Z,6.87
2019-02-27T05:47:15.805Z,7.13
2019-02-27T05:49:48.860Z,6.90
2019-02-27T05:52:19.233Z,6.77
2019-02-27T05:54:50.942Z,6.77
2019-02-27T05:57:23.204Z,6.43
2019-02-27T05:59:51.910Z,8.00
2019-02-27T06:02:25.458Z,7.27
2019-02-27T06:04:59.053Z,7.70
2019-02-27T06:07:28.492Z,8.73
2019-02-27T06:09:59.738Z,8.80
2019-02-27T06:12:30.959Z,7.63
2019-02-27T06:15:03.509Z,7.20
2019-02-27T06:17:42.928Z,7.20
2019-02-27T06:20:07.906Z,6.33
2019-02-27T06:22:37.662Z,6.07
2019-02-27T06:25:07.571Z,6.27
2019-02-27T06:27:39.958Z,6.93
2019-02-27T06:30:12.206Z,6.80
2019-02-27T06:32:41.550Z,6.23
2019-02-27T06:35:12.141Z,6.70
2019-02-27T06:37:50.441Z,6.97
2019-02-27T06:40:21.222Z,8.10
2019-02-27T06:43:03.040Z,7.20
2019-02-27T06:45:32.884Z,7.53
2019-02-27T06:48:02.417Z,6.70
2019-02-27T06:50:32.536Z,7.27
2019-02-27T06:53:03.445Z,7.03
2019-02-27T06:55:33.903Z,7.43
2019-02-27T06:58:07.348Z,7.33
2019-02-27T07:00:37.320Z,8.37
2019-02-27T07:03:08.977Z,6.67
2019-02-27T07:05:39.631Z,6.70
2019-02-27T07:08:11.382Z,6.17
2019-02-27T07:10:42.179Z,6.00
2019-02-27T07:13:22.121Z,6.10
2019-02-27T07:15:55.619Z,6.70
2019-02-27T07:18:25.755Z,7.27
2019-02-27T07:20:58.501Z,6.13
2019-02-27T07:23:28.866Z,7.67
2019-02-27T07:26:05.589Z,7.23
2019-02-27T07:28:34.831Z,6.00
2019-02-27T07:31:04.624Z,5.73
2019-02-27T07:33:34.481Z,6.77
2019-02-27T07:36:05.550Z,5.67
2019-02-27T07:38:34.823Z,5.77
2019-02-27T07:41:05.020Z,6.13
2019-02-27T07:43:35.467Z,6.23
2019-02-27T07:46:06.898Z,5.53
2019-02-27T07:48:37.718Z,6.67
2019-02-27T07:51:09.833Z,6.37
2019-02-27T07:53:42.045Z,6.90
2019-02-27T07:56:13.415Z,7.40
2019-02-27T07:58:42.899Z,7.72
2019-02-27T08:01:14.339Z,8.03
2019-02-27T08:03:46.901Z,8.10
2019-02-27T08:06:16.781Z,7.80
2019-02-27T08:08:48.564Z,8.05
2019-02-27T08:11:21.621Z,7.80
2019-02-27T08:13:52.006Z,8.25
2019-02-27T08:16:22.711Z,8.73
2019-02-27T08:18:51.970Z,7.83
2019-02-27T08:21:21.234Z,7.75
2019-02-27T08:23:55.122Z,7.53
2019-02-27T08:26:24.439Z,8.50
2019-02-27T08:28:58.364Z,8.90
2019-02-27T08:31:32.099Z,8.33
2019-02-27T08:34:01.505Z,8.13
2019-02-27T08:36:31.924Z,8.90
2019-02-27T08:39:01.150Z,8.93
2019-02-27T08:41:32.185Z,9.38
2019-02-27T08:44:03.555Z,8.60
2019-02-27T08:46:33.970Z,8.40
2019-02-27T08:49:07.221Z,8.53
2019-02-27T08:51:39.802Z,8.70
2019-02-27T08:54:09.209Z,8.85
2019-02-27T08:56:38.456Z,8.63
2019-02-27T08:59:09.074Z,7.70
2019-02-27T09:01:38.358Z,8.20
2019-02-27T09:04:11.435Z,8.05
2019-02-27T09:06:42.739Z,8.58
2019-02-27T09:09:14.984Z,8.28
2019-02-27T09:11:44.852Z,8.10
2019-02-27T09:14:14.508Z,8.25
2019-02-27T09:16:44.006Z,8.53
2019-02-27T09:19:15.899Z,8.20
2019-02-27T09:21:45.605Z,7.60
2019-02-27T09:24:15.400Z,8.03
2019-02-27T09:26:46.191Z,8.13
2019-02-27T09:29:18.368Z,8.03
2019-02-27T09:31:51.372Z,8.75
2019-02-27T09:34:40.655Z,7.95
2019-02-27T09:37:22.852Z,8.43
2019-02-27T09:39:54.592Z,8.10
2019-02-27T09:42:27.951Z,7.97
2019-02-27T09:45:08.255Z,8.00
2019-02-27T09:47:39.870Z,8.00
2019-02-27T09:50:14.712Z,7.87
2019-02-27T09:52:52.071Z,8.43
2019-02-27T09:55:22.035Z,8.40
2019-02-27T09:57:55.879Z,8.40
2019-02-27T10:00:39.416Z,8.70
2019-02-27T10:03:09.601Z,8.85
2019-02-27T10:05:40.896Z,8.18
2019-02-27T10:08:13.803Z,8.35
2019-02-27T10:10:45.767Z,8.28
2019-02-27T10:13:16.032Z,9.00
2019-02-27T10:15:47.163Z,8.10
2019-02-27T10:18:21.862Z,8.40
2019-02-27T10:20:59.739Z,8.63
2019-02-27T10:23:31.161Z,8.75
2019-02-27T10:26:02.657Z,8.55
2019-02-27T10:28:38.804Z,8.03
2019-02-27T10:31:06.875Z,8.10
2019-02-27T10:33:48.306Z,8.95
2019-02-27T10:36:18.391Z,8.63
2019-02-27T10:38:47.921Z,8.58
2019-02-27T10:41:18.794Z,8.68
2019-02-27T10:44:03.690Z,8.68
2019-02-27T10:46:35.718Z,8.75
2019-02-27T10:49:04.969Z,8.95
2019-02-27T10:51:35.263Z,8.50
2019-02-27T10:54:07.550Z,8.38
2019-02-27T10:56:37.936Z,8.48
2019-02-27T10:59:09.966Z,8.33
2019-02-27T11:01:40.368Z,8.33
2019-02-27T11:04:11.249Z,8.30
2019-02-27T11:06:53.438Z,8.98
2019-02-27T11:09:27.139Z,8.08
2019-02-27T11:11:56.695Z,7.85
2019-02-27T11:14:25.910Z,8.65
2019-02-27T11:17:02.684Z,7.55
2019-02-27T11:19:30.722Z,8.20
2019-02-27T11:22:03.451Z,8.15
2019-02-27T11:24:33.182Z,8.00
2019-02-27T11:27:07.459Z,8.27
2019-02-27T11:29:37.407Z,8.03
2019-02-27T11:32:08.222Z,8.00
2019-02-27T11:34:38.685Z,8.10
2019-02-27T11:37:12.979Z,7.97
2019-02-27T11:39:39.276Z,8.17
2019-02-27T11:42:16.025Z,8.20
2019-02-27T11:44:49.399Z,8.10
2019-02-27T11:47:19.738Z,8.27
2019-02-27T11:49:48.963Z,8.30
2019-02-27T11:52:18.207Z,8.50
2019-02-27T11:54:48.247Z,7.93
2019-02-27T11:57:17.858Z,7.57
2019-02-27T11:59:48.415Z,7.93
2019-02-27T12:02:28.626Z,7.50
2019-02-27T12:04:55.370Z,7.93
2019-02-27T12:07:26.491Z,8.47
2019-02-27T12:09:57.730Z,8.40
2019-02-27T12:12:27.767Z,8.20
2019-02-27T12:14:57.026Z,7.50
2019-02-27T12:17:27.605Z,7.73
2019-02-27T12:20:00.708Z,7.10
2019-02-27T12:22:32.925Z,7.80
2019-02-27T12:25:07.275Z,8.10
2019-02-27T12:27:48.565Z,8.07
2019-02-27T12:30:11.551Z,8.23
2019-02-27T12:32:41.242Z,8.07
2019-02-27T12:35:18.189Z,8.40
2019-02-27T12:37:49.139Z,8.40
2019-02-27T12:40:24.083Z,8.20
2019-02-27T12:42:54.005Z,8.33
2019-02-27T12:45:26.494Z,8.40
2019-02-27T12:47:57.222Z,7.83
2019-02-27T12:50:31.223Z,8.47
2019-02-27T12:53:00.757Z,7.97
2019-02-27T12:55:30.377Z,8.13
2019-02-27T12:57:59.607Z,7.83
2019-02-27T13:00:30.410Z,8.17
2019-02-27T13:03:02.651Z,8.10
2019-02-27T13:05:33.093Z,7.53
2019-02-27T13:08:03.674Z,7.80
2019-02-27T13:10:43.653Z,7.90
2019-02-27T13:13:19.964Z,7.27
2019-02-27T13:15:52.277Z,7.83
2019-02-27T13:18:21.676Z,7.10
2019-02-27T13:20:54.732Z,7.37
2019-02-27T13:23:24.183Z,7.10
2019-02-27T13:26:02.392Z,7.20
2019-02-27T13:28:31.612Z,7.70
2019-02-27T13:31:02.610Z,7.30
2019-02-27T13:33:32.979Z,7.30
2019-02-27T13:36:02.800Z,6.60
2019-02-27T13:38:34.505Z,7.13
2019-02-27T13:41:07.740Z,6.40
2019-02-27T13:43:36.813Z,6.57
2019-02-27T13:46:06.067Z,7.33
2019-02-27T13:48:39.812Z,6.47
2019-02-27T13:51:09.253Z,5.80
2019-02-27T13:53:39.148Z,6.97
2019-02-27T13:56:11.553Z,6.77
2019-02-27T13:58:45.666Z,6.70
2019-02-27T14:01:19.913Z,6.27
2019-02-27T14:03:49.158Z,6.13
2019-02-27T14:06:21.175Z,6.47
2019-02-27T14:08:51.910Z,6.20
2019-02-27T14:11:24.886Z,6.03
2019-02-27T14:13:56.457Z,6.20
2019-02-27T14:16:26.895Z,5.70
2019-02-27T14:19:07.228Z,5.90
2019-02-27T14:21:36.748Z,5.30
2019-02-27T14:24:06.893Z,4.77
2019-02-27T14:26:41.486Z,4.60
2019-02-27T14:29:12.657Z,4.57
2019-02-27T14:31:44.180Z,4.47
2019-02-27T14:34:15.038Z,4.90
2019-02-27T14:36:46.356Z,5.33
2019-02-27T14:39:15.653Z,5.10
2019-02-27T14:41:51.347Z,5.03
2019-02-27T14:44:21.345Z,4.87
2019-02-27T14:46:59.886Z,5.23
2019-02-27T14:49:31.228Z,5.57
2019-02-27T14:52:01.530Z,5.17
2019-02-27T14:54:34.509Z,5.53
2019-02-27T14:57:16.752Z,5.80
2019-02-27T14:59:55.364Z,5.07
2019-02-27T15:02:27.684Z,5.20
2019-02-27T15:05:00.050Z,5.50
2019-02-27T15:07:31.532Z,4.93
2019-02-27T15:10:14.756Z,5.30
2019-02-27T15:12:44.294Z,5.40
2019-02-27T15:15:16.829Z,5.10
2019-02-27T15:17:47.802Z,5.37
2019-02-27T15:20:19.348Z,5.60
2019-02-27T15:22:55.552Z,5.50
2019-02-27T15:25:27.426Z,5.53
2019-02-27T15:27:59.954Z,5.43
2019-02-27T15:30:35.188Z,5.70
2019-02-27T15:33:07.320Z,5.30
2019-02-27T15:35:38.120Z,5.60
2019-02-27T15:38:12.353Z,5.93
2019-02-27T15:40:46.889Z,5.50
2019-02-27T15:43:17.338Z,5.47
2019-02-27T15:45:51.736Z,5.37
2019-02-27T15:48:25.927Z,5.60
2019-02-27T15:50:57.453Z,5.33
2019-02-27T15:53:28.494Z,5.00
2019-02-27T15:56:01.051Z,5.03
2019-02-27T15:58:32.687Z,5.30
2019-02-27T16:01:02.652Z,5.10
2019-02-27T16:03:42.071Z,5.10
2019-02-27T16:06:15.734Z,5.00
2019-02-27T16:08:46.169Z,5.20
2019-02-27T16:11:17.388Z,4.70
2019-02-27T16:13:49.128Z,5.37
2019-02-27T16:16:23.322Z,5.20
2019-02-27T16:18:52.973Z,5.13
2019-02-27T16:21:24.372Z,5.63
2019-02-27T16:23:55.196Z,6.20
2019-02-27T16:26:27.181Z,6.07
2019-02-27T16:28:58.171Z,5.80
2019-02-27T16:31:27.679Z,5.93
2019-02-27T16:34:00.743Z,6.00
2019-02-27T16:36:36.273Z,6.27
2019-02-27T16:39:12.560Z,6.27
2019-02-27T16:41:46.507Z,6.53
2019-02-27T16:44:16.074Z,6.47
2019-02-27T16:47:06.042Z,7.07
2019-02-27T16:49:35.271Z,6.23
2019-02-27T16:52:09.913Z,5.97
2019-02-27T16:54:39.124Z,6.00
2019-02-27T16:57:12.507Z,6.47
2019-02-27T16:59:45.548Z,6.43
2019-02-27T17:02:14.286Z,6.70
2019-02-27T17:04:45.813Z,6.23
2019-02-27T17:07:16.523Z,8.53
2019-02-27T17:09:48.044Z,11.70
2019-02-27T17:12:21.529Z,8.30
2019-02-27T17:14:55.424Z,8.07
2019-02-27T17:17:26.096Z,7.83
2019-02-27T17:19:58.364Z,8.70
2019-02-27T17:22:30.306Z,7.63
2019-02-27T17:25:01.258Z,9.00
2019-02-27T17:27:36.550Z,9.23
2019-02-27T17:30:14.474Z,9.10
2019-02-27T17:32:43.703Z,8.20
2019-02-27T17:35:15.461Z,8.00
2019-02-27T17:37:46.225Z,9.30
2019-02-27T17:40:18.173Z,9.10
2019-02-27T17:42:53.549Z,9.03
2019-02-27T17:45:26.995Z,10.10
2019-02-27T17:47:56.829Z,10.07
2019-02-27T17:50:28.465Z,9.70
2019-02-27T17:52:58.031Z,9.60
2019-02-27T17:55:31.773Z,9.63
2019-02-27T17:58:04.791Z,11.00
2019-02-27T18:00:39.171Z,14.57
2019-02-27T18:03:08.781Z,9.53
2019-02-27T18:05:39.208Z,9.33
2019-02-27T18:08:09.686Z,9.53
2019-02-27T18:10:39.929Z,9.83
2019-02-27T18:13:19.095Z,9.90
2019-02-27T18:15:53.283Z,10.63
2019-02-27T18:18:25.211Z,11.40
2019-02-27T18:20:56.725Z,12.90
2019-02-27T18:23:26.916Z,13.83
2019-02-27T18:25:56.341Z,11.40
2019-02-27T18:28:32.756Z,10.93
2019-02-27T18:30:59.698Z,11.27
2019-02-27T18:33:31.555Z,10.50
2019-02-27T18:36:04.803Z,10.63
2019-02-27T18:38:34.861Z,10.97
2019-02-27T18:41:04.141Z,10.67
2019-02-27T18:43:34.276Z,33.33
2019-02-27T18:46:03.489Z,40.77
2019-02-27T18:48:36.903Z,36.57
2019-02-27T18:51:10.096Z,29.93
2019-02-27T18:53:41.124Z,19.03
2019-02-27T18:56:12.534Z,13.30
2019-02-27T18:58:42.667Z,13.70
2019-02-27T19:01:11.891Z,16.67
2019-02-27T19:03:44.580Z,15.23
2019-02-27T19:06:14.072Z,11.10
2019-02-27T19:08:45.868Z,8.30
2019-02-27T19:11:33.476Z,7.73
2019-02-27T19:14:05.837Z,7.07
2019-02-27T19:16:34.015Z,7.13
2019-02-27T19:19:03.255Z,7.53
2019-02-27T19:21:33.909Z,6.50
2019-02-27T19:24:08.266Z,6.27
2019-02-27T19:26:38.329Z,6.60
2019-02-27T19:29:08.150Z,6.70
2019-02-27T19:31:39.203Z,6.63
2019-02-27T19:34:10.974Z,6.90
2019-02-27T19:36:50.304Z,8.97
2019-02-27T19:39:21.713Z,13.50
2019-02-27T19:41:51.876Z,16.10
2019-02-27T19:44:21.103Z,14.03
2019-02-27T19:46:52.063Z,14.37
2019-02-27T19:49:21.913Z,14.50
2019-02-27T19:51:54.915Z,18.80
2019-02-27T19:54:25.362Z,17.97
2019-02-27T19:56:55.980Z,16.23
2019-02-27T19:59:25.702Z,14.63
2019-02-27T20:01:57.452Z,12.03
2019-02-27T20:04:29.289Z,9.83
2019-02-27T20:07:01.836Z,9.67
2019-02-27T20:09:31.941Z,9.40
2019-02-27T20:12:04.181Z,9.87
2019-02-27T20:14:36.709Z,9.83
2019-02-27T20:17:07.284Z,10.20
2019-02-27T20:19:37.681Z,10.53
2019-02-27T20:22:07.772Z,11.33
2019-02-27T20:24:48.007Z,12.03
2019-02-27T20:27:21.131Z,11.80
2019-02-27T20:29:55.490Z,12.20
2019-02-27T20:32:28.389Z,11.47
2019-02-27T20:34:56.462Z,12.00
2019-02-27T20:37:47.560Z,12.67
2019-02-27T20:40:20.245Z,11.73
2019-02-27T20:42:53.781Z,11.60
2019-02-27T20:45:21.243Z,12.70
2019-02-27T20:47:50.819Z,14.13
2019-02-27T20:50:40.067Z,15.40
2019-02-27T20:53:12.628Z,16.77
2019-02-27T20:55:42.350Z,16.20
2019-02-27T20:58:16.209Z,13.67
2019-02-27T21:00:43.471Z,14.03
2019-02-27T21:03:12.959Z,14.20
2019-02-27T21:05:51.442Z,13.13
2019-02-27T21:08:25.597Z,13.63
2019-02-27T21:10:56.360Z,13.70
2019-02-27T21:13:29.057Z,13.07
2019-02-27T21:15:59.494Z,13.53
2019-02-27T21:18:33.399Z,12.87
2019-02-27T21:21:05.033Z,12.47
2019-02-27T21:23:37.299Z,11.80
2019-02-27T21:26:09.549Z,12.77
2019-02-27T21:28:44.997Z,11.47
2019-02-27T21:31:16.313Z,12.47
2019-02-27T21:33:48.402Z,11.40
2019-02-27T21:36:20.455Z,11.10
2019-02-27T21:38:51.487Z,9.90
2019-02-27T21:41:21.163Z,10.63
2019-02-27T21:43:53.287Z,10.30
2019-02-27T21:46:23.962Z,9.97
2019-02-27T21:48:53.214Z,9.77
2019-02-27T21:51:24.988Z,9.23
2019-02-27T21:53:55.333Z,9.63
2019-02-27T21:56:26.050Z,9.70
2019-02-27T21:58:56.910Z,11.03
2019-02-27T22:01:29.586Z,10.90
2019-02-27T22:04:01.508Z,10.77
2019-02-27T22:06:41.144Z,11.57
2019-02-27T22:09:21.141Z,14.20
2019-02-27T22:11:51.260Z,12.00
2019-02-27T22:14:21.972Z,14.73
2019-02-27T22:16:56.128Z,14.50
2019-02-27T22:19:26.123Z,13.20
2019-02-27T22:21:58.551Z,12.80
2019-02-27T22:24:31.504Z,12.20
2019-02-27T22:27:09.277Z,12.80
2019-02-27T22:29:42.482Z,13.40
2019-02-27T22:32:15.391Z,12.90
2019-02-27T22:34:47.653Z,12.27
2019-02-27T22:37:20.707Z,12.87
2019-02-27T22:39:53.488Z,12.83
2019-02-27T22:42:23.922Z,12.27
2019-02-27T22:45:04.267Z,12.90
2019-02-27T22:47:35.711Z,14.33
2019-02-27T23:03:11.812Z,16.97
2019-02-27T23:05:41.097Z,17.87
2019-02-27T23:08:10.626Z,16.77
2019-02-27T23:10:39.877Z,14.83
2019-02-27T23:13:12.811Z,14.60
2019-02-27T23:15:41.493Z,14.30
2019-02-27T23:18:11.047Z,13.63
2019-02-27T23:20:40.400Z,14.47
2019-02-27T23:23:09.720Z,13.77
2019-02-27T23:25:38.967Z,12.57
2019-02-27T23:28:08.315Z,12.07
2019-02-27T23:30:37.974Z,12.17
2019-02-27T23:33:07.198Z,11.90
2019-02-27T23:35:36.440Z,12.10
2019-02-27T23:38:05.826Z,11.47
2019-02-27T23:40:36.274Z,12.00
2019-02-27T23:43:05.494Z,12.40
2019-02-27T23:45:34.738Z,11.90
2019-02-27T23:48:04.063Z,12.43
2019-02-27T23:50:33.312Z,11.97
2019-02-27T23:53:02.562Z,11.03
2019-02-27T23:55:31.880Z,12.53
2019-02-27T23:58:01.099Z,12.20
